createdAt,value
2019-01-26T00:00:32.234Z,3.72
2019-01-26T00:01:32.282Z,3.72
2019-01-26T00:02:32.333Z,3.68
2019-01-26T00:03:32.384Z,3.72
2019-01-26T00:04:32.432Z,3.75
2019-01-26T00:05:32.483Z,3.74
2019-01-26T00:06:32.538Z,3.74
2019-01-26T00:07:32.581Z,3.63
2019-01-26T00:08:32.632Z,3.68
2019-01-26T00:09:32.684Z,3.75
2019-01-26T00:10:32.737Z,3.70
2019-01-26T00:11:32.787Z,3.72
2019-01-26T00:12:32.834Z,3.70
2019-01-26T00:13:32.883Z,3.75
2019-01-26T00:14:32.935Z,3.74
2019-01-26T00:15:33.010Z,3.72
2019-01-26T00:16:33.036Z,3.74
2019-01-26T00:17:33.084Z,3.72
2019-01-26T00:18:33.136Z,3.68
2019-01-26T00:19:33.183Z,3.71
2019-01-26T00:20:36.440Z,3.80
2019-01-26T00:21:33.284Z,3.70
2019-01-26T00:22:33.336Z,3.72
2019-01-26T00:23:33.385Z,3.72
2019-01-26T00:24:33.435Z,3.64
2019-01-26T00:25:33.486Z,3.68
2019-01-26T00:26:36.313Z,3.70
2019-01-26T00:27:33.585Z,3.74
2019-01-26T00:28:33.637Z,3.74
2019-01-26T00:29:33.686Z,3.75
2019-01-26T00:30:33.736Z,3.71
2019-01-26T00:31:33.787Z,3.74
2019-01-26T00:32:33.836Z,3.70
2019-01-26T00:33:33.888Z,3.82
2019-01-26T00:34:33.940Z,3.77
2019-01-26T00:35:33.988Z,3.84
2019-01-26T00:36:34.037Z,3.80
2019-01-26T00:37:34.087Z,3.82
2019-01-26T00:38:34.139Z,3.81
2019-01-26T00:39:34.188Z,3.81
2019-01-26T00:40:34.239Z,3.82
2019-01-26T00:41:34.289Z,3.81
2019-01-26T00:42:34.343Z,3.84
2019-01-26T00:43:34.389Z,3.77
2019-01-26T00:44:34.439Z,3.81
2019-01-26T00:45:34.490Z,3.86
2019-01-26T00:46:34.542Z,3.86
2019-01-26T00:47:34.591Z,3.84
2019-01-26T00:48:34.641Z,3.84
2019-01-26T00:49:34.712Z,3.93
2019-01-26T00:50:34.742Z,3.92
2019-01-26T00:51:34.791Z,3.86
2019-01-26T00:52:34.842Z,3.92
2019-01-26T00:53:34.894Z,3.86
2019-01-26T00:54:34.944Z,3.84
2019-01-26T00:55:34.996Z,3.86
2019-01-26T00:56:35.044Z,3.90
2019-01-26T00:57:35.096Z,3.90
2019-01-26T00:58:35.145Z,3.86
2019-01-26T00:59:35.199Z,3.81
2019-01-26T01:00:35.246Z,3.81
2019-01-26T01:01:35.295Z,3.88
2019-01-26T01:02:35.347Z,3.92
2019-01-26T01:03:35.465Z,3.90
2019-01-26T01:04:35.447Z,3.96
2019-01-26T01:05:35.497Z,3.90
2019-01-26T01:06:35.550Z,3.95
2019-01-26T01:07:35.597Z,4.00
2019-01-26T01:08:35.649Z,3.95
2019-01-26T01:09:35.710Z,3.95
2019-01-26T01:10:35.751Z,3.92
2019-01-26T01:11:35.802Z,3.95
2019-01-26T01:12:35.850Z,3.96
2019-01-26T01:13:35.902Z,3.95
2019-01-26T01:14:35.952Z,4.02
2019-01-26T01:15:36.002Z,4.02
2019-01-26T01:16:36.172Z,3.99
2019-01-26T01:17:36.104Z,3.98
2019-01-26T01:18:36.152Z,3.99
2019-01-26T01:19:36.203Z,4.00
2019-01-26T01:20:36.255Z,4.04
2019-01-26T01:21:36.304Z,3.98
2019-01-26T01:22:36.355Z,4.02
2019-01-26T01:23:36.439Z,4.00
2019-01-26T01:24:36.458Z,4.00
2019-01-26T01:25:36.506Z,3.98
2019-01-26T01:26:36.557Z,3.99
2019-01-26T01:27:36.609Z,3.98
2019-01-26T01:28:36.657Z,3.95
2019-01-26T01:29:36.707Z,3.98
2019-01-26T01:30:36.758Z,4.04
2019-01-26T01:31:36.809Z,3.98
2019-01-26T01:32:36.859Z,3.99
2019-01-26T01:33:36.911Z,3.98
2019-01-26T01:34:36.963Z,4.02
2019-01-26T01:35:37.012Z,4.06
2019-01-26T01:36:37.065Z,4.10
2019-01-26T01:37:37.114Z,4.04
2019-01-26T01:38:37.164Z,4.10
2019-01-26T01:39:37.213Z,4.11
2019-01-26T01:40:37.265Z,4.07
2019-01-26T01:41:37.316Z,4.06
2019-01-26T01:42:37.366Z,4.06
2019-01-26T01:43:37.415Z,4.10
2019-01-26T01:44:37.471Z,4.06
2019-01-26T01:45:37.518Z,4.07
2019-01-26T01:46:42.875Z,4.07
2019-01-26T01:47:37.634Z,4.13
2019-01-26T01:48:37.669Z,4.06
2019-01-26T01:49:37.719Z,4.11
2019-01-26T01:50:37.771Z,4.13
2019-01-26T01:51:37.821Z,4.08
2019-01-26T01:52:37.935Z,4.16
2019-01-26T01:53:37.923Z,4.16
2019-01-26T01:54:37.974Z,4.18
2019-01-26T01:55:38.025Z,4.11
2019-01-26T01:56:38.074Z,4.16
2019-01-26T01:57:38.126Z,4.13
2019-01-26T01:58:38.177Z,4.14
2019-01-26T01:59:38.226Z,4.13
2019-01-26T02:00:38.278Z,4.18
2019-01-26T02:01:38.331Z,4.25
2019-01-26T02:02:38.380Z,4.28
2019-01-26T02:03:38.430Z,4.24
2019-01-26T02:04:38.482Z,4.25
2019-01-26T02:05:38.531Z,4.26
2019-01-26T02:06:38.583Z,4.17
2019-01-26T02:07:38.633Z,4.08
2019-01-26T02:08:38.685Z,4.14
2019-01-26T02:09:38.738Z,4.14
2019-01-26T02:10:38.787Z,4.17
2019-01-26T02:11:38.839Z,4.14
2019-01-26T02:12:38.886Z,4.24
2019-01-26T02:13:38.939Z,4.24
2019-01-26T02:14:38.991Z,4.16
2019-01-26T02:15:39.039Z,4.13
2019-01-26T02:16:39.090Z,4.14
2019-01-26T02:17:39.141Z,4.11
2019-01-26T02:18:39.193Z,4.24
2019-01-26T02:19:39.243Z,4.17
2019-01-26T02:20:39.295Z,4.28
2019-01-26T02:21:39.346Z,4.18
2019-01-26T02:22:39.396Z,4.14
2019-01-26T02:23:39.449Z,4.20
2019-01-26T02:24:39.498Z,4.14
2019-01-26T02:25:39.549Z,4.11
2019-01-26T02:26:39.600Z,4.14
2019-01-26T02:27:39.650Z,4.17
2019-01-26T02:28:39.701Z,4.13
2019-01-26T02:29:39.753Z,4.14
2019-01-26T02:30:39.818Z,4.17
2019-01-26T02:31:39.855Z,4.16
2019-01-26T02:32:39.912Z,4.20
2019-01-26T02:33:39.957Z,4.24
2019-01-26T02:34:40.006Z,4.21
2019-01-26T02:35:40.056Z,4.20
2019-01-26T02:36:40.113Z,4.18
2019-01-26T02:37:40.159Z,4.21
2019-01-26T02:38:40.232Z,4.16
2019-01-26T02:39:40.261Z,4.16
2019-01-26T02:40:40.309Z,4.14
2019-01-26T02:41:40.360Z,4.10
2019-01-26T02:42:40.422Z,4.10
2019-01-26T02:43:40.461Z,4.10
2019-01-26T02:44:40.515Z,4.13
2019-01-26T02:45:40.563Z,4.13
2019-01-26T02:46:40.613Z,4.20
2019-01-26T02:47:40.663Z,4.24
2019-01-26T02:48:40.713Z,4.24
2019-01-26T02:49:40.765Z,4.13
2019-01-26T02:50:40.815Z,4.13
2019-01-26T02:51:40.875Z,4.13
2019-01-26T02:52:40.917Z,4.16
2019-01-26T02:53:40.967Z,4.10
2019-01-26T02:54:41.017Z,4.25
2019-01-26T02:55:41.073Z,4.25
2019-01-26T02:56:41.121Z,4.26
2019-01-26T02:57:41.170Z,4.21
2019-01-26T02:58:41.220Z,4.28
2019-01-26T02:59:41.270Z,4.24
2019-01-26T03:00:41.321Z,4.29
2019-01-26T03:01:41.376Z,4.25
2019-01-26T03:02:41.424Z,4.25
2019-01-26T03:03:41.474Z,4.26
2019-01-26T03:04:41.524Z,4.26
2019-01-26T03:05:41.575Z,4.28
2019-01-26T03:06:41.625Z,4.20
2019-01-26T03:07:41.676Z,4.25
2019-01-26T03:08:41.729Z,4.24
2019-01-26T03:09:41.783Z,4.31
2019-01-26T03:10:41.827Z,4.29
2019-01-26T03:11:41.877Z,4.29
2019-01-26T03:12:41.927Z,4.35
2019-01-26T03:13:41.978Z,4.32
2019-01-26T03:14:42.030Z,4.36
2019-01-26T03:15:42.079Z,4.28
2019-01-26T03:16:42.129Z,4.21
2019-01-26T03:17:42.181Z,4.25
2019-01-26T03:18:42.233Z,4.24
2019-01-26T03:19:42.280Z,4.28
2019-01-26T03:20:42.332Z,4.28
2019-01-26T03:21:42.385Z,4.26
2019-01-26T03:22:42.434Z,4.28
2019-01-26T03:23:42.483Z,4.26
2019-01-26T03:24:42.536Z,4.32
2019-01-26T03:25:42.589Z,4.25
2019-01-26T03:26:42.634Z,4.34
2019-01-26T03:27:42.683Z,4.26
2019-01-26T03:28:42.734Z,4.32
2019-01-26T03:29:42.787Z,4.26
2019-01-26T03:30:42.837Z,4.32
2019-01-26T03:31:42.888Z,4.32
2019-01-26T03:32:42.938Z,4.31
2019-01-26T03:33:42.988Z,4.32
2019-01-26T03:34:43.040Z,4.28
2019-01-26T03:35:43.088Z,4.21
2019-01-26T03:36:43.138Z,4.34
2019-01-26T03:37:43.190Z,4.26
2019-01-26T03:38:43.239Z,4.34
2019-01-26T03:39:43.290Z,4.28
2019-01-26T03:40:43.341Z,4.29
2019-01-26T03:41:43.420Z,4.25
2019-01-26T03:42:43.441Z,4.36
2019-01-26T03:43:43.492Z,4.29
2019-01-26T03:44:43.545Z,4.35
2019-01-26T03:45:43.593Z,4.43
2019-01-26T03:46:43.645Z,4.31
2019-01-26T03:47:43.701Z,4.28
2019-01-26T03:48:43.744Z,4.35
2019-01-26T03:49:43.795Z,4.42
2019-01-26T03:50:43.846Z,4.26
2019-01-26T03:51:43.897Z,4.39
2019-01-26T03:52:43.947Z,4.42
2019-01-26T03:53:44.000Z,4.43
2019-01-26T03:54:44.048Z,4.43
2019-01-26T03:55:44.099Z,4.44
2019-01-26T03:56:44.151Z,4.35
2019-01-26T03:57:44.200Z,4.35
2019-01-26T03:58:44.252Z,4.39
2019-01-26T03:59:44.302Z,4.31
2019-01-26T04:00:44.351Z,4.36
2019-01-26T04:01:44.403Z,4.39
2019-01-26T04:02:44.454Z,4.42
2019-01-26T04:03:44.504Z,4.43
2019-01-26T04:04:44.555Z,4.34
2019-01-26T04:05:44.607Z,4.39
2019-01-26T04:06:44.656Z,4.35
2019-01-26T04:07:44.707Z,4.32
2019-01-26T04:08:44.763Z,4.42
2019-01-26T04:09:44.813Z,4.42
2019-01-26T04:10:44.859Z,4.44
2019-01-26T04:11:44.909Z,4.44
2019-01-26T04:12:44.972Z,4.44
2019-01-26T04:13:45.012Z,4.39
2019-01-26T04:14:45.071Z,4.49
2019-01-26T04:15:45.117Z,4.43
2019-01-26T04:16:45.163Z,4.32
2019-01-26T04:17:45.232Z,4.35
2019-01-26T04:18:45.267Z,4.36
2019-01-26T04:19:45.317Z,4.44
2019-01-26T04:20:45.371Z,4.39
2019-01-26T04:21:45.419Z,4.35
2019-01-26T04:22:45.470Z,4.34
2019-01-26T04:23:45.521Z,4.44
2019-01-26T04:24:45.572Z,4.32
2019-01-26T04:25:45.622Z,4.32
2019-01-26T04:26:45.673Z,4.35
2019-01-26T04:27:45.742Z,4.35
2019-01-26T04:28:45.796Z,4.39
2019-01-26T04:29:45.834Z,4.32
2019-01-26T04:30:45.876Z,4.38
2019-01-26T04:31:45.928Z,4.38
2019-01-26T04:32:45.981Z,4.39
2019-01-26T04:33:46.032Z,4.38
2019-01-26T04:34:46.080Z,4.34
2019-01-26T04:35:46.139Z,4.32
2019-01-26T04:36:46.183Z,4.25
2019-01-26T04:37:46.232Z,4.21
2019-01-26T04:38:46.285Z,4.36
2019-01-26T04:39:46.336Z,4.25
2019-01-26T04:40:46.384Z,4.24
2019-01-26T04:41:46.450Z,4.24
2019-01-26T04:42:46.487Z,4.20
2019-01-26T04:43:46.538Z,4.29
2019-01-26T04:44:46.589Z,4.25
2019-01-26T04:45:46.641Z,4.34
2019-01-26T04:46:46.696Z,4.32
2019-01-26T04:47:46.740Z,4.32
2019-01-26T04:48:46.792Z,4.34
2019-01-26T04:49:46.844Z,4.34
2019-01-26T04:50:46.894Z,4.34
2019-01-26T04:51:46.944Z,4.35
2019-01-26T04:52:46.996Z,4.25
2019-01-26T04:53:47.046Z,4.34
2019-01-26T04:54:47.097Z,4.39
2019-01-26T04:55:47.147Z,4.44
2019-01-26T04:56:47.198Z,4.38
2019-01-26T04:57:47.294Z,4.31
2019-01-26T04:58:47.300Z,4.42
2019-01-26T04:59:47.350Z,4.35
2019-01-26T05:00:47.433Z,4.35
2019-01-26T05:01:47.503Z,4.39
2019-01-26T05:02:47.501Z,4.39
2019-01-26T05:03:47.553Z,4.47
2019-01-26T05:04:47.611Z,4.36
2019-01-26T05:05:47.654Z,4.39
2019-01-26T05:06:47.704Z,4.38
2019-01-26T05:07:47.754Z,4.38
2019-01-26T05:08:47.807Z,4.31
2019-01-26T05:09:47.857Z,4.36
2019-01-26T05:10:47.909Z,4.34
2019-01-26T05:11:47.959Z,4.28
2019-01-26T05:12:48.010Z,4.36
2019-01-26T05:13:48.059Z,4.32
2019-01-26T05:14:48.118Z,4.29
2019-01-26T05:15:48.162Z,4.29
2019-01-26T05:16:48.216Z,4.25
2019-01-26T05:17:48.265Z,4.24
2019-01-26T05:18:48.315Z,4.26
2019-01-26T05:19:48.363Z,4.28
2019-01-26T05:20:48.414Z,4.24
2019-01-26T05:21:48.467Z,4.21
2019-01-26T05:22:48.520Z,4.25
2019-01-26T05:23:48.568Z,4.35
2019-01-26T05:24:48.618Z,4.32
2019-01-26T05:25:48.669Z,4.25
2019-01-26T05:26:48.719Z,4.36
2019-01-26T05:27:48.772Z,4.31
2019-01-26T05:28:48.819Z,4.32
2019-01-26T05:29:48.871Z,4.34
2019-01-26T05:30:48.925Z,4.29
2019-01-26T05:31:48.986Z,4.35
2019-01-26T05:32:49.025Z,4.32
2019-01-26T05:33:49.073Z,4.35
2019-01-26T05:34:49.127Z,4.31
2019-01-26T05:35:49.173Z,4.34
2019-01-26T05:36:49.237Z,4.38
2019-01-26T05:37:49.276Z,4.47
2019-01-26T05:38:49.326Z,4.42
2019-01-26T05:39:49.377Z,4.44
2019-01-26T05:40:49.426Z,4.43
2019-01-26T05:41:49.480Z,4.46
2019-01-26T05:42:49.530Z,4.44
2019-01-26T05:43:49.577Z,4.38
2019-01-26T05:44:49.791Z,4.44
2019-01-26T05:45:49.679Z,4.46
2019-01-26T05:46:49.733Z,4.43
2019-01-26T05:47:49.861Z,4.46
2019-01-26T05:48:49.831Z,4.47
2019-01-26T05:49:49.885Z,4.47
2019-01-26T05:50:49.934Z,4.43
2019-01-26T05:51:49.984Z,4.42
2019-01-26T05:52:50.035Z,4.50
2019-01-26T05:53:50.085Z,4.43
2019-01-26T05:54:50.136Z,4.43
2019-01-26T05:55:50.187Z,4.51
2019-01-26T05:56:50.237Z,4.47
2019-01-26T05:57:50.291Z,4.43
2019-01-26T05:58:50.339Z,4.44
2019-01-26T05:59:50.390Z,4.43
2019-01-26T06:00:50.440Z,4.43
2019-01-26T06:01:50.494Z,4.42
2019-01-26T06:02:50.542Z,4.43
2019-01-26T06:03:50.597Z,4.49
2019-01-26T06:04:50.642Z,4.51
2019-01-26T06:05:50.697Z,4.47
2019-01-26T06:06:50.745Z,4.42
2019-01-26T06:07:50.796Z,4.54
2019-01-26T06:08:50.846Z,4.53
2019-01-26T06:09:50.899Z,4.51
2019-01-26T06:10:50.949Z,4.59
2019-01-26T06:11:51.012Z,4.44
2019-01-26T06:12:51.053Z,4.56
2019-01-26T06:13:51.101Z,4.54
2019-01-26T06:14:51.154Z,4.59
2019-01-26T06:15:51.203Z,4.59
2019-01-26T06:16:51.254Z,4.56
2019-01-26T06:17:55.124Z,4.57
2019-01-26T06:18:51.356Z,4.59
2019-01-26T06:19:51.406Z,4.56
2019-01-26T06:20:51.456Z,4.56
2019-01-26T06:21:51.507Z,4.64
2019-01-26T06:22:51.558Z,4.61
2019-01-26T06:23:51.609Z,4.61
2019-01-26T06:24:51.660Z,4.62
2019-01-26T06:25:51.711Z,4.61
2019-01-26T06:26:51.763Z,4.64
2019-01-26T06:27:51.818Z,4.61
2019-01-26T06:28:51.863Z,4.62
2019-01-26T06:29:51.935Z,4.65
2019-01-26T06:30:51.965Z,4.67
2019-01-26T06:31:52.029Z,4.59
2019-01-26T06:32:52.067Z,4.61
2019-01-26T06:33:52.117Z,4.61
2019-01-26T06:34:52.174Z,4.61
2019-01-26T06:35:52.219Z,4.61
2019-01-26T06:36:52.271Z,4.62
2019-01-26T06:37:52.320Z,4.65
2019-01-26T06:38:53.555Z,4.62
2019-01-26T06:39:52.422Z,4.69
2019-01-26T06:40:52.474Z,4.69
2019-01-26T06:41:52.525Z,4.67
2019-01-26T06:42:52.577Z,4.77
2019-01-26T06:43:52.626Z,4.72
2019-01-26T06:44:52.677Z,4.69
2019-01-26T06:45:52.729Z,4.71
2019-01-26T06:46:52.780Z,4.71
2019-01-26T06:47:52.828Z,4.68
2019-01-26T06:48:52.880Z,4.75
2019-01-26T06:49:52.932Z,4.75
2019-01-26T06:50:52.984Z,4.69
2019-01-26T06:51:53.034Z,4.68
2019-01-26T06:52:53.085Z,4.69
2019-01-26T06:53:53.135Z,4.67
2019-01-26T06:54:53.188Z,4.68
2019-01-26T06:55:53.237Z,4.79
2019-01-26T06:56:53.288Z,4.74
2019-01-26T06:57:53.341Z,4.69
2019-01-26T06:58:53.391Z,4.69
2019-01-26T06:59:53.443Z,4.69
2019-01-26T07:00:53.491Z,4.77
2019-01-26T07:01:53.545Z,4.77
2019-01-26T07:02:53.602Z,4.75
2019-01-26T07:03:53.652Z,4.68
2019-01-26T07:04:53.697Z,4.79
2019-01-26T07:05:53.747Z,4.79
2019-01-26T07:06:53.801Z,4.79
2019-01-26T07:07:53.849Z,4.79
2019-01-26T07:08:53.898Z,4.69
2019-01-26T07:09:53.951Z,4.72
2019-01-26T07:10:54.004Z,4.72
2019-01-26T07:11:54.051Z,4.68
2019-01-26T07:12:54.103Z,4.77
2019-01-26T07:13:54.154Z,4.71
2019-01-26T07:14:54.204Z,4.83
2019-01-26T07:15:54.254Z,4.79
2019-01-26T07:16:54.305Z,4.69
2019-01-26T07:17:54.357Z,4.74
2019-01-26T07:18:54.407Z,4.79
2019-01-26T07:19:54.458Z,4.79
2019-01-26T07:20:54.509Z,4.94
2019-01-26T07:21:54.560Z,4.83
2019-01-26T07:22:54.612Z,4.96
2019-01-26T07:23:54.664Z,4.90
2019-01-26T07:24:54.712Z,4.88
2019-01-26T07:25:54.763Z,4.87
2019-01-26T07:26:54.815Z,4.96
2019-01-26T07:27:54.865Z,4.91
2019-01-26T07:28:54.915Z,4.87
2019-01-26T07:29:54.966Z,4.91
2019-01-26T07:30:55.017Z,4.87
2019-01-26T07:31:55.068Z,4.93
2019-01-26T07:32:55.119Z,4.93
2019-01-26T07:33:55.170Z,4.94
2019-01-26T07:34:55.220Z,4.94
2019-01-26T07:35:55.270Z,5.01
2019-01-26T07:36:55.324Z,4.99
2019-01-26T07:37:55.374Z,5.01
2019-01-26T07:38:55.424Z,5.05
2019-01-26T07:39:55.474Z,4.94
2019-01-26T07:40:55.526Z,5.02
2019-01-26T07:41:55.576Z,5.01
2019-01-26T07:42:55.629Z,4.97
2019-01-26T07:43:55.718Z,4.93
2019-01-26T07:44:55.729Z,5.02
2019-01-26T07:45:55.781Z,5.02
2019-01-26T07:46:55.833Z,4.97
2019-01-26T07:47:55.881Z,5.01
2019-01-26T07:48:55.942Z,4.97
2019-01-26T07:49:55.984Z,5.06
2019-01-26T07:50:56.036Z,4.93
2019-01-26T07:51:56.087Z,4.97
2019-01-26T07:52:56.137Z,5.02
2019-01-26T07:53:56.195Z,5.01
2019-01-26T07:54:56.240Z,5.02
2019-01-26T07:55:56.289Z,5.05
2019-01-26T07:56:56.342Z,5.11
2019-01-26T07:57:56.392Z,5.04
2019-01-26T07:58:56.444Z,5.04
2019-01-26T07:59:56.495Z,5.08
2019-01-26T08:00:56.586Z,5.05
2019-01-26T08:01:56.597Z,5.06
2019-01-26T08:02:56.649Z,5.17
2019-01-26T08:03:56.699Z,4.97
2019-01-26T08:04:56.751Z,5.04
2019-01-26T08:05:56.800Z,5.11
2019-01-26T08:06:56.854Z,5.08
2019-01-26T08:07:56.902Z,5.01
2019-01-26T08:08:56.954Z,5.06
2019-01-26T08:09:57.006Z,5.12
2019-01-26T08:10:57.061Z,5.14
2019-01-26T08:11:57.108Z,5.06
2019-01-26T08:12:57.159Z,5.11
2019-01-26T08:13:57.212Z,5.11
2019-01-26T08:14:57.265Z,5.11
2019-01-26T08:15:57.313Z,5.05
2019-01-26T08:16:57.365Z,5.02
2019-01-26T08:17:57.416Z,4.99
2019-01-26T08:18:57.470Z,5.11
2019-01-26T08:19:57.518Z,5.04
2019-01-26T08:20:57.571Z,5.01
2019-01-26T08:21:57.622Z,5.05
2019-01-26T08:22:57.674Z,5.04
2019-01-26T08:23:57.724Z,5.11
2019-01-26T08:24:57.776Z,5.11
2019-01-26T08:25:57.828Z,5.14
2019-01-26T08:26:57.879Z,4.99
2019-01-26T08:27:57.931Z,5.12
2019-01-26T08:28:57.981Z,5.15
2019-01-26T08:29:58.032Z,5.11
2019-01-26T08:30:58.085Z,5.15
2019-01-26T08:31:58.135Z,5.14
2019-01-26T08:32:58.186Z,5.24
2019-01-26T08:33:58.238Z,5.22
2019-01-26T08:34:58.290Z,5.12
2019-01-26T08:35:58.340Z,5.14
2019-01-26T08:36:58.392Z,5.11
2019-01-26T08:37:58.447Z,5.26
2019-01-26T08:38:58.495Z,5.29
2019-01-26T08:39:58.545Z,5.23
2019-01-26T08:40:58.596Z,5.24
2019-01-26T08:41:58.651Z,5.19
2019-01-26T08:42:58.701Z,5.15
2019-01-26T08:43:58.752Z,5.17
2019-01-26T08:44:58.802Z,5.20
2019-01-26T08:45:58.854Z,5.19
2019-01-26T08:46:58.908Z,5.17
2019-01-26T08:47:58.957Z,5.14
2019-01-26T08:48:59.009Z,5.23
2019-01-26T08:49:59.062Z,5.15
2019-01-26T08:50:59.113Z,5.12
2019-01-26T08:51:59.165Z,5.19
2019-01-26T08:52:59.217Z,5.17
2019-01-26T08:53:59.268Z,5.19
2019-01-26T08:54:59.319Z,5.19
2019-01-26T08:55:59.371Z,5.14
2019-01-26T08:56:59.423Z,5.24
2019-01-26T08:57:59.474Z,5.26
2019-01-26T08:58:59.527Z,5.29
2019-01-26T08:59:59.577Z,5.27
2019-01-26T09:00:59.629Z,5.27
2019-01-26T09:01:59.682Z,5.32
2019-01-26T09:02:59.731Z,5.27
2019-01-26T09:03:59.782Z,5.27
2019-01-26T09:04:59.838Z,5.35
2019-01-26T09:05:59.886Z,5.30
2019-01-26T09:06:59.941Z,5.27
2019-01-26T09:07:59.989Z,5.30
2019-01-26T09:09:00.041Z,5.35
2019-01-26T09:10:00.243Z,5.33
2019-01-26T09:11:00.146Z,5.38
2019-01-26T09:12:00.194Z,5.40
2019-01-26T09:13:00.252Z,5.41
2019-01-26T09:14:00.302Z,5.42
2019-01-26T09:15:00.351Z,5.45
2019-01-26T09:16:00.403Z,5.45
2019-01-26T09:17:01.077Z,5.45
2019-01-26T09:18:00.505Z,5.47
2019-01-26T09:19:00.558Z,5.49
2019-01-26T09:20:00.611Z,5.63
2019-01-26T09:21:00.662Z,5.62
2019-01-26T09:22:00.714Z,5.58
2019-01-26T09:23:00.769Z,5.60
2019-01-26T09:24:00.818Z,5.52
2019-01-26T09:25:01.772Z,5.59
2019-01-26T09:26:00.922Z,5.59
2019-01-26T09:27:00.973Z,5.49
2019-01-26T09:28:01.023Z,5.58
2019-01-26T09:29:01.076Z,5.58
2019-01-26T09:30:01.157Z,5.63
2019-01-26T09:31:01.180Z,5.62
2019-01-26T09:32:01.232Z,5.62
2019-01-26T09:33:01.284Z,5.66
2019-01-26T09:34:01.335Z,5.70
2019-01-26T09:35:01.399Z,5.77
2019-01-26T09:36:01.443Z,5.74
2019-01-26T09:37:01.492Z,5.75
2019-01-26T09:38:01.543Z,5.70
2019-01-26T09:39:01.596Z,5.60
2019-01-26T09:40:01.695Z,5.63
2019-01-26T09:41:01.700Z,5.69
2019-01-26T09:42:01.751Z,5.60
2019-01-26T09:43:01.804Z,5.67
2019-01-26T09:44:01.854Z,5.63
2019-01-26T09:45:01.908Z,5.78
2019-01-26T09:46:01.959Z,5.75
2019-01-26T09:47:02.016Z,5.75
2019-01-26T09:48:02.063Z,5.75
2019-01-26T09:49:02.116Z,5.75
2019-01-26T09:50:02.170Z,5.78
2019-01-26T09:51:02.221Z,5.73
2019-01-26T09:52:02.279Z,5.70
2019-01-26T09:53:02.325Z,5.80
2019-01-26T09:54:02.376Z,5.75
2019-01-26T09:55:02.431Z,5.73
2019-01-26T09:56:02.494Z,5.77
2019-01-26T09:57:02.535Z,5.74
2019-01-26T09:58:02.588Z,5.75
2019-01-26T09:59:02.640Z,5.75
2019-01-26T10:00:02.691Z,5.80
2019-01-26T10:01:02.743Z,5.80
2019-01-26T10:02:02.797Z,5.90
2019-01-26T10:03:02.849Z,6.05
2019-01-26T10:04:02.900Z,6.03
2019-01-26T10:05:02.953Z,5.98
2019-01-26T10:06:03.006Z,5.96
2019-01-26T10:07:03.061Z,5.98
2019-01-26T10:08:03.109Z,6.01
2019-01-26T10:09:03.162Z,6.01
2019-01-26T10:10:03.215Z,5.83
2019-01-26T10:11:03.268Z,5.90
2019-01-26T10:12:03.319Z,6.01
2019-01-26T10:13:03.374Z,5.99
2019-01-26T10:14:03.425Z,6.01
2019-01-26T10:15:03.477Z,5.99
2019-01-26T10:16:03.529Z,5.98
2019-01-26T10:17:03.891Z,6.06
2019-01-26T10:18:03.634Z,6.03
2019-01-26T10:19:03.686Z,6.03
2019-01-26T10:20:03.738Z,6.06
2019-01-26T10:21:03.794Z,6.10
2019-01-26T10:22:03.843Z,6.13
2019-01-26T10:23:03.895Z,6.13
2019-01-26T10:24:03.947Z,6.17
2019-01-26T10:25:04.000Z,6.21
2019-01-26T10:26:04.053Z,6.16
2019-01-26T10:27:04.106Z,6.16
2019-01-26T10:28:04.157Z,6.13
2019-01-26T10:29:04.210Z,6.13
2019-01-26T10:30:04.263Z,6.19
2019-01-26T10:31:04.315Z,6.14
2019-01-26T10:32:04.369Z,6.14
2019-01-26T10:33:04.421Z,6.14
2019-01-26T10:34:04.472Z,6.13
2019-01-26T10:35:04.536Z,6.13
2019-01-26T10:36:04.576Z,6.05
2019-01-26T10:37:04.629Z,6.16
2019-01-26T10:38:04.682Z,6.13
2019-01-26T10:39:04.735Z,6.20
2019-01-26T10:40:04.787Z,6.14
2019-01-26T10:41:04.859Z,6.13
2019-01-26T10:42:04.892Z,6.21
2019-01-26T10:43:04.944Z,6.25
2019-01-26T10:44:04.997Z,6.11
2019-01-26T10:45:05.049Z,6.16
2019-01-26T10:46:05.280Z,6.25
2019-01-26T10:47:05.154Z,6.19
2019-01-26T10:48:05.205Z,6.08
2019-01-26T10:49:05.259Z,6.13
2019-01-26T10:50:05.312Z,6.14
2019-01-26T10:51:05.415Z,6.28
2019-01-26T10:52:05.416Z,6.30
2019-01-26T10:53:05.471Z,6.33
2019-01-26T10:54:05.521Z,6.46
2019-01-26T10:55:05.574Z,6.35
2019-01-26T10:56:05.626Z,6.27
2019-01-26T10:57:05.679Z,6.33
2019-01-26T10:58:05.731Z,6.21
2019-01-26T10:59:05.790Z,6.21
2019-01-26T11:00:05.842Z,6.19
2019-01-26T11:01:05.890Z,6.20
2019-01-26T11:02:06.869Z,6.33
2019-01-26T11:03:06.000Z,6.32
2019-01-26T11:04:06.048Z,6.33
2019-01-26T11:05:06.100Z,6.30
2019-01-26T11:06:06.153Z,6.38
2019-01-26T11:07:06.206Z,6.35
2019-01-26T11:08:06.259Z,6.38
2019-01-26T11:09:06.310Z,6.27
2019-01-26T11:10:06.365Z,6.38
2019-01-26T11:11:06.417Z,6.36
2019-01-26T11:12:06.469Z,6.33
2019-01-26T11:13:06.522Z,6.36
2019-01-26T11:14:06.575Z,6.30
2019-01-26T11:15:06.632Z,6.30
2019-01-26T11:16:06.680Z,6.25
2019-01-26T11:17:06.733Z,6.30
2019-01-26T11:18:06.788Z,6.32
2019-01-26T11:19:08.031Z,6.33
2019-01-26T11:20:06.891Z,6.28
2019-01-26T11:21:06.944Z,6.28
2019-01-26T11:22:06.996Z,6.43
2019-01-26T11:23:07.049Z,6.40
2019-01-26T11:24:07.104Z,6.36
2019-01-26T11:25:07.153Z,6.36
2019-01-26T11:26:07.207Z,6.38
2019-01-26T11:27:07.261Z,6.42
2019-01-26T11:28:07.312Z,6.43
2019-01-26T11:29:07.368Z,6.40
2019-01-26T11:30:07.418Z,6.40
2019-01-26T11:31:07.471Z,6.40
2019-01-26T11:32:07.524Z,6.45
2019-01-26T11:33:07.576Z,6.50
2019-01-26T11:34:07.627Z,6.40
2019-01-26T11:35:07.682Z,6.36
2019-01-26T11:36:07.734Z,6.36
2019-01-26T11:37:07.786Z,6.38
2019-01-26T11:38:07.843Z,6.35
2019-01-26T11:39:07.893Z,6.42
2019-01-26T11:40:08.565Z,6.38
2019-01-26T11:41:07.998Z,6.36
2019-01-26T11:42:08.051Z,6.43
2019-01-26T11:43:08.104Z,6.38
2019-01-26T11:44:08.256Z,6.42
2019-01-26T11:45:08.210Z,6.45
2019-01-26T11:46:08.261Z,6.42
2019-01-26T11:47:08.319Z,6.38
2019-01-26T11:48:08.366Z,6.35
2019-01-26T11:49:14.900Z,6.46
2019-01-26T11:50:08.473Z,6.43
2019-01-26T11:51:08.525Z,6.46
2019-01-26T11:52:08.577Z,6.42
2019-01-26T11:53:08.636Z,6.39
2019-01-26T11:54:08.683Z,6.46
2019-01-26T11:55:08.736Z,6.46
2019-01-26T11:56:08.787Z,6.50
2019-01-26T11:57:08.858Z,6.42
2019-01-26T11:58:08.895Z,6.51
2019-01-26T11:59:08.947Z,6.42
2019-01-26T12:00:09.001Z,6.45
2019-01-26T12:01:09.051Z,6.35
2019-01-26T12:02:09.104Z,6.32
2019-01-26T12:03:09.157Z,6.35
2019-01-26T12:04:09.209Z,6.35
2019-01-26T12:05:09.262Z,6.27
2019-01-26T12:06:09.315Z,6.42
2019-01-26T12:07:09.370Z,6.35
2019-01-26T12:08:09.419Z,6.33
2019-01-26T12:09:09.476Z,6.32
2019-01-26T12:10:09.525Z,6.43
2019-01-26T12:11:09.577Z,6.36
2019-01-26T12:12:09.629Z,6.50
2019-01-26T12:13:09.682Z,6.46
2019-01-26T12:14:09.735Z,6.40
2019-01-26T12:15:09.787Z,6.43
2019-01-26T12:16:09.847Z,6.42
2019-01-26T12:17:09.892Z,6.48
2019-01-26T12:18:10.375Z,6.46
2019-01-26T12:19:09.998Z,6.46
2019-01-26T12:20:10.050Z,6.35
2019-01-26T12:21:10.102Z,6.39
2019-01-26T12:22:10.155Z,6.48
2019-01-26T12:23:10.206Z,6.43
2019-01-26T12:24:10.260Z,6.42
2019-01-26T12:25:10.313Z,6.50
2019-01-26T12:26:10.364Z,6.43
2019-01-26T12:27:10.416Z,6.43
2019-01-26T12:28:10.469Z,6.42
2019-01-26T12:29:10.522Z,6.48
2019-01-26T12:30:10.576Z,6.57
2019-01-26T12:31:10.628Z,6.60
2019-01-26T12:32:10.680Z,6.65
2019-01-26T12:33:10.735Z,6.57
2019-01-26T12:34:10.784Z,6.63
2019-01-26T12:35:10.838Z,6.63
2019-01-26T12:36:10.890Z,6.68
2019-01-26T12:37:10.942Z,6.69
2019-01-26T12:38:10.995Z,6.69
2019-01-26T12:39:11.049Z,6.65
2019-01-26T12:40:11.101Z,6.65
2019-01-26T12:41:17.422Z,6.63
2019-01-26T12:42:11.206Z,6.68
2019-01-26T12:43:11.259Z,6.64
2019-01-26T12:44:11.311Z,6.60
2019-01-26T12:45:11.366Z,6.46
2019-01-26T12:46:11.418Z,6.53
2019-01-26T12:47:16.955Z,6.48
2019-01-26T12:48:11.522Z,6.50
2019-01-26T12:49:11.626Z,6.55
2019-01-26T12:50:11.627Z,6.45
2019-01-26T12:51:11.682Z,6.58
2019-01-26T12:52:11.733Z,6.45
2019-01-26T12:53:11.787Z,6.45
2019-01-26T12:54:11.839Z,6.54
2019-01-26T12:55:11.893Z,6.40
2019-01-26T12:56:11.944Z,6.46
2019-01-26T12:57:11.996Z,6.57
2019-01-26T12:58:12.050Z,6.43
2019-01-26T12:59:12.105Z,6.53
2019-01-26T13:00:12.155Z,6.58
2019-01-26T13:01:12.207Z,6.61
2019-01-26T13:02:12.260Z,6.58
2019-01-26T13:03:12.314Z,6.58
2019-01-26T13:04:12.365Z,6.55
2019-01-26T13:05:12.418Z,6.69
2019-01-26T13:06:12.472Z,6.69
2019-01-26T13:07:12.524Z,6.71
2019-01-26T13:08:12.577Z,6.68
2019-01-26T13:09:12.632Z,6.72
2019-01-26T13:10:12.683Z,6.76
2019-01-26T13:11:12.735Z,6.75
2019-01-26T13:12:12.788Z,6.79
2019-01-26T13:13:12.841Z,6.89
2019-01-26T13:14:12.894Z,6.97
2019-01-26T13:15:15.284Z,6.91
2019-01-26T13:16:13.755Z,6.89
2019-01-26T13:17:13.052Z,6.94
2019-01-26T13:18:13.108Z,6.93
2019-01-26T13:19:13.159Z,6.87